sensor_id;sensor_type;location;lat;lon;timestamp;P1;durP1;ratioP1;P2;durP2;ratioP2
60582;SDS011;46415;47.536;19.066;2023-04-19T00:00:56;2.62;;;2.42;;
60582;SDS011;46415;47.536;19.066;2023-04-19T00:04:00;3.83;;;2.83;;
60582;SDS011;46415;47.536;19.066;2023-04-19T00:07:03;3.20;;;2.90;;
60582;SDS011;46415;47.536;19.066;2023-04-19T00:10:06;3.45;;;3.15;;
60582;SDS011;46415;47.536;19.066;2023-04-19T00:13:09;3.72;;;3.10;;
60582;SDS011;46415;47.536;19.066;2023-04-19T00:16:12;3.10;;;2.80;;
60582;SDS011;46415;47.536;19.066;2023-04-19T00:19:15;3.10;;;2.80;;
60582;SDS011;46415;47.536;19.066;2023-04-19T00:22:19;3.15;;;2.90;;
60582;SDS011;46415;47.536;19.066;2023-04-19T00:25:22;4.95;;;2.55;;
60582;SDS011;46415;47.536;19.066;2023-04-19T00:28:25;3.05;;;2.85;;
60582;SDS011;46415;47.536;19.066;2023-04-19T00:31:28;3.17;;;2.83;;
60582;SDS011;46415;47.536;19.066;2023-04-19T00:34:31;5.03;;;2.97;;
60582;SDS011;46415;47.536;19.066;2023-04-19T00:37:34;3.35;;;3.05;;
60582;SDS011;46415;47.536;19.066;2023-04-19T00:40:38;3.92;;;3.33;;
60582;SDS011;46415;47.536;19.066;2023-04-19T00:43:41;4.85;;;3.35;;
60582;SDS011;46415;47.536;19.066;2023-04-19T00:46:44;4.00;;;2.90;;
60582;SDS011;46415;47.536;19.066;2023-04-19T00:49:47;2.85;;;2.65;;
60582;SDS011;46415;47.536;19.066;2023-04-19T00:52:51;4.10;;;3.00;;
60582;SDS011;46415;47.536;19.066;2023-04-19T00:55:55;4.07;;;3.20;;
60582;SDS011;46415;47.536;19.066;2023-04-19T00:59:02;3.85;;;2.60;;
60582;SDS011;46415;47.536;19.066;2023-04-19T01:02:05;3.25;;;2.95;;
60582;SDS011;46415;47.536;19.066;2023-04-19T01:05:09;3.45;;;3.15;;
60582;SDS011;46415;47.536;19.066;2023-04-19T01:08:14;3.45;;;3.15;;
60582;SDS011;46415;47.536;19.066;2023-04-19T01:11:17;4.00;;;2.78;;
60582;SDS011;46415;47.536;19.066;2023-04-19T01:14:20;3.00;;;2.75;;
60582;SDS011;46415;47.536;19.066;2023-04-19T01:17:22;3.72;;;2.55;;
60582;SDS011;46415;47.536;19.066;2023-04-19T01:20:27;3.65;;;2.83;;
60582;SDS011;46415;47.536;19.066;2023-04-19T01:23:30;3.35;;;2.80;;
60582;SDS011;46415;47.536;19.066;2023-04-19T01:26:32;3.05;;;2.83;;
60582;SDS011;46415;47.536;19.066;2023-04-19T01:29:37;3.37;;;3.08;;
60582;SDS011;46415;47.536;19.066;2023-04-19T01:32:39;3.83;;;3.10;;
60582;SDS011;46415;47.536;19.066;2023-04-19T01:35:42;3.42;;;2.97;;
60582;SDS011;46415;47.536;19.066;2023-04-19T01:38:45;2.78;;;2.58;;
60582;SDS011;46415;47.536;19.066;2023-04-19T01:41:51;5.53;;;2.87;;
60582;SDS011;46415;47.536;19.066;2023-04-19T01:44:53;3.53;;;2.78;;
60582;SDS011;46415;47.536;19.066;2023-04-19T01:47:56;3.65;;;2.53;;
60582;SDS011;46415;47.536;19.066;2023-04-19T01:51:01;3.33;;;2.80;;
60582;SDS011;46415;47.536;19.066;2023-04-19T01:54:04;4.62;;;2.78;;
60582;SDS011;46415;47.536;19.066;2023-04-19T01:57:06;3.33;;;3.03;;
60582;SDS011;46415;47.536;19.066;2023-04-19T02:00:12;4.25;;;2.45;;
60582;SDS011;46415;47.536;19.066;2023-04-19T02:03:16;3.30;;;3.00;;
60582;SDS011;46415;47.536;19.066;2023-04-19T02:06:19;3.03;;;2.83;;
60582;SDS011;46415;47.536;19.066;2023-04-19T02:09:24;3.00;;;2.70;;
60582;SDS011;46415;47.536;19.066;2023-04-19T02:12:27;4.10;;;2.78;;
60582;SDS011;46415;47.536;19.066;2023-04-19T02:15:32;3.47;;;3.17;;
60582;SDS011;46415;47.536;19.066;2023-04-19T02:18:35;3.45;;;3.12;;
60582;SDS011;46415;47.536;19.066;2023-04-19T02:21:41;3.92;;;3.20;;
60582;SDS011;46415;47.536;19.066;2023-04-19T02:24:44;3.95;;;3.20;;
60582;SDS011;46415;47.536;19.066;2023-04-19T02:27:48;3.30;;;3.00;;
60582;SDS011;46415;47.536;19.066;2023-04-19T02:30:52;3.40;;;3.10;;
60582;SDS011;46415;47.536;19.066;2023-04-19T02:33:55;4.78;;;3.30;;
60582;SDS011;46415;47.536;19.066;2023-04-19T02:36:58;3.87;;;3.58;;
60582;SDS011;46415;47.536;19.066;2023-04-19T02:40:02;4.97;;;3.55;;
60582;SDS011;46415;47.536;19.066;2023-04-19T02:43:07;4.20;;;3.33;;
60582;SDS011;46415;47.536;19.066;2023-04-19T02:46:09;5.00;;;3.60;;
60582;SDS011;46415;47.536;19.066;2023-04-19T02:49:12;4.30;;;3.75;;
60582;SDS011;46415;47.536;19.066;2023-04-19T02:52:15;3.90;;;3.50;;
60582;SDS011;46415;47.536;19.066;2023-04-19T02:55:18;5.25;;;4.00;;
60582;SDS011;46415;47.536;19.066;2023-04-19T02:58:22;4.68;;;3.87;;
60582;SDS011;46415;47.536;19.066;2023-04-19T03:01:25;5.65;;;4.10;;
60582;SDS011;46415;47.536;19.066;2023-04-19T03:04:28;4.50;;;3.42;;
60582;SDS011;46415;47.536;19.066;2023-04-19T03:07:33;6.05;;;4.10;;
60582;SDS011;46415;47.536;19.066;2023-04-19T03:10:35;4.50;;;4.10;;
60582;SDS011;46415;47.536;19.066;2023-04-19T03:13:38;7.22;;;4.40;;
60582;SDS011;46415;47.536;19.066;2023-04-19T03:16:42;8.02;;;4.97;;
60582;SDS011;46415;47.536;19.066;2023-04-19T03:19:45;4.65;;;3.80;;
60582;SDS011;46415;47.536;19.066;2023-04-19T03:22:47;5.82;;;4.35;;
60582;SDS011;46415;47.536;19.066;2023-04-19T03:25:50;4.80;;;4.32;;
60582;SDS011;46415;47.536;19.066;2023-04-19T03:28:54;6.82;;;4.85;;
60582;SDS011;46415;47.536;19.066;2023-04-19T03:31:57;4.12;;;3.72;;
60582;SDS011;46415;47.536;19.066;2023-04-19T03:35:01;7.12;;;4.45;;
60582;SDS011;46415;47.536;19.066;2023-04-19T03:38:04;7.32;;;4.28;;
60582;SDS011;46415;47.536;19.066;2023-04-19T03:41:16;6.53;;;4.87;;
60582;SDS011;46415;47.536;19.066;2023-04-19T03:44:21;7.03;;;4.82;;
60582;SDS011;46415;47.536;19.066;2023-04-19T03:47:24;4.82;;;3.75;;
60582;SDS011;46415;47.536;19.066;2023-04-19T03:50:28;6.53;;;4.97;;
60582;SDS011;46415;47.536;19.066;2023-04-19T03:53:31;6.45;;;4.75;;
60582;SDS011;46415;47.536;19.066;2023-04-19T03:56:34;6.55;;;4.00;;
60582;SDS011;46415;47.536;19.066;2023-04-19T03:59:37;4.75;;;3.90;;
60582;SDS011;46415;47.536;19.066;2023-04-19T04:02:40;4.72;;;4.07;;
60582;SDS011;46415;47.536;19.066;2023-04-19T04:05:45;6.10;;;5.07;;
60582;SDS011;46415;47.536;19.066;2023-04-19T04:08:48;7.37;;;4.53;;
60582;SDS011;46415;47.536;19.066;2023-04-19T04:11:50;6.18;;;4.32;;
60582;SDS011;46415;47.536;19.066;2023-04-19T04:14:53;4.70;;;4.12;;
60582;SDS011;46415;47.536;19.066;2023-04-19T04:17:56;4.40;;;3.80;;
60582;SDS011;46415;47.536;19.066;2023-04-19T04:21:00;5.85;;;4.62;;
60582;SDS011;46415;47.536;19.066;2023-04-19T04:24:06;5.22;;;3.75;;
60582;SDS011;46415;47.536;19.066;2023-04-19T04:27:09;4.97;;;3.97;;
60582;SDS011;46415;47.536;19.066;2023-04-19T04:30:13;5.55;;;4.28;;
60582;SDS011;46415;47.536;19.066;2023-04-19T04:33:16;6.32;;;4.22;;
60582;SDS011;46415;47.536;19.066;2023-04-19T04:36:19;4.10;;;3.65;;
60582;SDS011;46415;47.536;19.066;2023-04-19T04:39:24;6.78;;;4.68;;
60582;SDS011;46415;47.536;19.066;2023-04-19T04:42:27;5.20;;;3.60;;
60582;SDS011;46415;47.536;19.066;2023-04-19T04:45:32;5.50;;;4.87;;
60582;SDS011;46415;47.536;19.066;2023-04-19T04:48:36;5.22;;;4.07;;
60582;SDS011;46415;47.536;19.066;2023-04-19T04:51:39;4.70;;;4.07;;
60582;SDS011;46415;47.536;19.066;2023-04-19T04:54:43;4.68;;;4.25;;
60582;SDS011;46415;47.536;19.066;2023-04-19T04:57:49;4.57;;;4.03;;
60582;SDS011;46415;47.536;19.066;2023-04-19T05:00:53;5.75;;;3.85;;
60582;SDS011;46415;47.536;19.066;2023-04-19T05:03:56;5.18;;;3.90;;
60582;SDS011;46415;47.536;19.066;2023-04-19T05:06:59;5.90;;;4.80;;
60582;SDS011;46415;47.536;19.066;2023-04-19T05:10:02;5.50;;;4.10;;
60582;SDS011;46415;47.536;19.066;2023-04-19T05:13:09;6.00;;;4.15;;
60582;SDS011;46415;47.536;19.066;2023-04-19T05:16:12;5.85;;;4.68;;
60582;SDS011;46415;47.536;19.066;2023-04-19T05:19:17;5.93;;;4.53;;
60582;SDS011;46415;47.536;19.066;2023-04-19T05:22:20;5.00;;;4.20;;
60582;SDS011;46415;47.536;19.066;2023-04-19T05:25:24;7.47;;;4.18;;
60582;SDS011;46415;47.536;19.066;2023-04-19T05:28:27;4.65;;;4.15;;
60582;SDS011;46415;47.536;19.066;2023-04-19T05:31:32;5.87;;;4.32;;
60582;SDS011;46415;47.536;19.066;2023-04-19T05:34:36;5.80;;;4.07;;
60582;SDS011;46415;47.536;19.066;2023-04-19T05:37:45;5.82;;;4.22;;
60582;SDS011;46415;47.536;19.066;2023-04-19T05:40:48;5.80;;;4.05;;
60582;SDS011;46415;47.536;19.066;2023-04-19T05:43:52;6.85;;;4.43;;
60582;SDS011;46415;47.536;19.066;2023-04-19T05:46:58;5.43;;;4.20;;
60582;SDS011;46415;47.536;19.066;2023-04-19T05:50:04;5.30;;;4.30;;
60582;SDS011;46415;47.536;19.066;2023-04-19T05:53:07;6.37;;;4.62;;
60582;SDS011;46415;47.536;19.066;2023-04-19T05:56:10;5.18;;;4.62;;
60582;SDS011;46415;47.536;19.066;2023-04-19T05:59:13;4.87;;;4.18;;
60582;SDS011;46415;47.536;19.066;2023-04-19T06:02:17;5.78;;;4.20;;
60582;SDS011;46415;47.536;19.066;2023-04-19T06:05:20;5.32;;;4.43;;
60582;SDS011;46415;47.536;19.066;2023-04-19T06:08:24;6.35;;;4.22;;
60582;SDS011;46415;47.536;19.066;2023-04-19T06:11:29;6.47;;;4.37;;
60582;SDS011;46415;47.536;19.066;2023-04-19T06:14:48;6.72;;;4.65;;
60582;SDS011;46415;47.536;19.066;2023-04-19T06:17:51;11.00;;;4.70;;
60582;SDS011;46415;47.536;19.066;2023-04-19T06:20:54;4.85;;;4.35;;
60582;SDS011;46415;47.536;19.066;2023-04-19T06:23:57;6.10;;;4.90;;
60582;SDS011;46415;47.536;19.066;2023-04-19T06:27:00;6.62;;;4.37;;
60582;SDS011;46415;47.536;19.066;2023-04-19T06:30:03;5.68;;;4.72;;
60582;SDS011;46415;47.536;19.066;2023-04-19T06:33:06;5.18;;;4.68;;
60582;SDS011;46415;47.536;19.066;2023-04-19T06:36:09;5.65;;;4.12;;
60582;SDS011;46415;47.536;19.066;2023-04-19T06:39:13;5.22;;;4.65;;
60582;SDS011;46415;47.536;19.066;2023-04-19T06:42:16;6.57;;;4.45;;
60582;SDS011;46415;47.536;19.066;2023-04-19T06:45:21;5.75;;;4.60;;
60582;SDS011;46415;47.536;19.066;2023-04-19T06:48:24;6.90;;;5.00;;
60582;SDS011;46415;47.536;19.066;2023-04-19T06:51:27;5.47;;;4.07;;
60582;SDS011;46415;47.536;19.066;2023-04-19T06:54:30;4.72;;;3.75;;
60582;SDS011;46415;47.536;19.066;2023-04-19T06:57:33;4.47;;;3.72;;
60582;SDS011;46415;47.536;19.066;2023-04-19T07:00:36;6.03;;;3.92;;
60582;SDS011;46415;47.536;19.066;2023-04-19T07:03:39;5.28;;;4.07;;
60582;SDS011;46415;47.536;19.066;2023-04-19T07:06:46;4.07;;;3.40;;
60582;SDS011;46415;47.536;19.066;2023-04-19T07:09:50;5.97;;;3.65;;
60582;SDS011;46415;47.536;19.066;2023-04-19T07:12:54;4.62;;;3.50;;
60582;SDS011;46415;47.536;19.066;2023-04-19T07:15:57;4.65;;;3.67;;
60582;SDS011;46415;47.536;19.066;2023-04-19T07:19:00;4.97;;;3.75;;
60582;SDS011;46415;47.536;19.066;2023-04-19T07:22:03;3.40;;;3.00;;
60582;SDS011;46415;47.536;19.066;2023-04-19T07:25:08;3.30;;;3.00;;
60582;SDS011;46415;47.536;19.066;2023-04-19T07:28:11;3.70;;;2.97;;
60582;SDS011;46415;47.536;19.066;2023-04-19T07:31:14;4.43;;;2.90;;
60582;SDS011;46415;47.536;19.066;2023-04-19T07:34:20;3.12;;;2.62;;
60582;SDS011;46415;47.536;19.066;2023-04-19T07:37:23;3.12;;;2.83;;
60582;SDS011;46415;47.536;19.066;2023-04-19T07:40:25;3.03;;;2.80;;
60582;SDS011;46415;47.536;19.066;2023-04-19T07:43:29;4.18;;;2.95;;
60582;SDS011;46415;47.536;19.066;2023-04-19T07:46:31;6.87;;;3.12;;
60582;SDS011;46415;47.536;19.066;2023-04-19T07:49:35;3.50;;;3.10;;
60582;SDS011;46415;47.536;19.066;2023-04-19T07:52:38;4.55;;;2.97;;
60582;SDS011;46415;47.536;19.066;2023-04-19T07:55:41;5.60;;;3.20;;
60582;SDS011;46415;47.536;19.066;2023-04-19T07:58:44;4.70;;;3.37;;
60582;SDS011;46415;47.536;19.066;2023-04-19T08:01:55;3.87;;;3.25;;
60582;SDS011;46415;47.536;19.066;2023-04-19T08:04:58;3.55;;;3.10;;
60582;SDS011;46415;47.536;19.066;2023-04-19T08:08:03;5.28;;;3.22;;
60582;SDS011;46415;47.536;19.066;2023-04-19T08:11:06;4.57;;;3.25;;
60582;SDS011;46415;47.536;19.066;2023-04-19T08:14:09;3.80;;;2.83;;
60582;SDS011;46415;47.536;19.066;2023-04-19T08:17:32;3.12;;;2.70;;
60582;SDS011;46415;47.536;19.066;2023-04-19T08:20:44;4.37;;;3.10;;
60582;SDS011;46415;47.536;19.066;2023-04-19T08:23:49;3.00;;;2.70;;
60582;SDS011;46415;47.536;19.066;2023-04-19T08:26:55;4.70;;;2.60;;
60582;SDS011;46415;47.536;19.066;2023-04-19T08:30:01;3.03;;;2.83;;
60582;SDS011;46415;47.536;19.066;2023-04-19T08:33:05;3.62;;;2.08;;
60582;SDS011;46415;47.536;19.066;2023-04-19T08:36:08;3.37;;;2.47;;
60582;SDS011;46415;47.536;19.066;2023-04-19T08:39:11;2.95;;;2.60;;
60582;SDS011;46415;47.536;19.066;2023-04-19T08:42:31;2.67;;;2.22;;
60582;SDS011;46415;47.536;19.066;2023-04-19T08:45:38;2.53;;;2.33;;
60582;SDS011;46415;47.536;19.066;2023-04-19T08:48:41;3.28;;;2.28;;
60582;SDS011;46415;47.536;19.066;2023-04-19T08:51:47;3.78;;;2.70;;
60582;SDS011;46415;47.536;19.066;2023-04-19T08:54:52;2.60;;;2.40;;
60582;SDS011;46415;47.536;19.066;2023-04-19T08:57:56;5.10;;;3.00;;
60582;SDS011;46415;47.536;19.066;2023-04-19T09:01:00;3.70;;;3.10;;
60582;SDS011;46415;47.536;19.066;2023-04-19T09:04:06;4.05;;;3.22;;
60582;SDS011;46415;47.536;19.066;2023-04-19T09:07:25;4.28;;;3.10;;
60582;SDS011;46415;47.536;19.066;2023-04-19T09:10:29;3.72;;;2.90;;
60582;SDS011;46415;47.536;19.066;2023-04-19T09:13:32;3.97;;;3.30;;
60582;SDS011;46415;47.536;19.066;2023-04-19T09:16:38;3.75;;;3.42;;
60582;SDS011;46415;47.536;19.066;2023-04-19T09:19:48;4.30;;;3.47;;
60582;SDS011;46415;47.536;19.066;2023-04-19T09:23:04;4.22;;;3.80;;
60582;SDS011;46415;47.536;19.066;2023-04-19T09:26:08;5.68;;;3.62;;
60582;SDS011;46415;47.536;19.066;2023-04-19T09:29:17;5.47;;;3.90;;
60582;SDS011;46415;47.536;19.066;2023-04-19T09:32:21;4.60;;;3.67;;
60582;SDS011;46415;47.536;19.066;2023-04-19T09:35:41;3.70;;;3.40;;
60582;SDS011;46415;47.536;19.066;2023-04-19T09:38:46;5.82;;;4.30;;
60582;SDS011;46415;47.536;19.066;2023-04-19T09:41:51;5.28;;;4.57;;
60582;SDS011;46415;47.536;19.066;2023-04-19T09:44:55;5.15;;;4.45;;
60582;SDS011;46415;47.536;19.066;2023-04-19T09:48:02;6.22;;;4.43;;
60582;SDS011;46415;47.536;19.066;2023-04-19T09:51:09;5.20;;;4.17;;
60582;SDS011;46415;47.536;19.066;2023-04-19T09:54:16;5.57;;;4.05;;
60582;SDS011;46415;47.536;19.066;2023-04-19T09:57:20;4.12;;;3.47;;
60582;SDS011;46415;47.536;19.066;2023-04-19T10:00:23;5.70;;;4.12;;
60582;SDS011;46415;47.536;19.066;2023-04-19T10:03:26;4.68;;;4.12;;
60582;SDS011;46415;47.536;19.066;2023-04-19T10:06:31;4.95;;;3.87;;
60582;SDS011;46415;47.536;19.066;2023-04-19T10:09:57;4.37;;;3.97;;
60582;SDS011;46415;47.536;19.066;2023-04-19T10:13:20;5.00;;;4.05;;
60582;SDS011;46415;47.536;19.066;2023-04-19T10:16:46;4.87;;;4.30;;
60582;SDS011;46415;47.536;19.066;2023-04-19T10:19:55;5.40;;;4.85;;
60582;SDS011;46415;47.536;19.066;2023-04-19T10:23:01;5.78;;;5.20;;
60582;SDS011;46415;47.536;19.066;2023-04-19T10:26:08;5.62;;;5.07;;
60582;SDS011;46415;47.536;19.066;2023-04-19T10:29:11;6.43;;;4.70;;
60582;SDS011;46415;47.536;19.066;2023-04-19T10:32:15;5.35;;;4.85;;
60582;SDS011;46415;47.536;19.066;2023-04-19T10:35:20;7.07;;;5.62;;
60582;SDS011;46415;47.536;19.066;2023-04-19T10:38:37;5.30;;;4.80;;
60582;SDS011;46415;47.536;19.066;2023-04-19T10:41:56;5.30;;;4.80;;
60582;SDS011;46415;47.536;19.066;2023-04-19T10:48:37;5.05;;;4.43;;
60582;SDS011;46415;47.536;19.066;2023-04-19T10:51:46;4.82;;;4.30;;
60582;SDS011;46415;47.536;19.066;2023-04-19T10:54:55;6.55;;;4.80;;
60582;SDS011;46415;47.536;19.066;2023-04-19T10:58:05;5.12;;;4.65;;
60582;SDS011;46415;47.536;19.066;2023-04-19T11:07:39;4.75;;;4.25;;
60582;SDS011;46415;47.536;19.066;2023-04-19T11:10:43;5.10;;;4.32;;
60582;SDS011;46415;47.536;19.066;2023-04-19T11:13:46;5.60;;;4.40;;
60582;SDS011;46415;47.536;19.066;2023-04-19T11:16:49;5.03;;;4.35;;
60582;SDS011;46415;47.536;19.066;2023-04-19T11:20:05;7.15;;;4.47;;
60582;SDS011;46415;47.536;19.066;2023-04-19T11:23:17;4.40;;;4.00;;
60582;SDS011;46415;47.536;19.066;2023-04-19T11:26:22;4.70;;;4.05;;
60582;SDS011;46415;47.536;19.066;2023-04-19T11:29:25;5.93;;;4.25;;
60582;SDS011;46415;47.536;19.066;2023-04-19T11:32:30;4.85;;;3.78;;
60582;SDS011;46415;47.536;19.066;2023-04-19T11:35:33;5.82;;;5.15;;
60582;SDS011;46415;47.536;19.066;2023-04-19T11:38:37;6.93;;;6.22;;
60582;SDS011;46415;47.536;19.066;2023-04-19T11:41:40;6.93;;;6.22;;
60582;SDS011;46415;47.536;19.066;2023-04-19T11:44:47;8.00;;;7.05;;
60582;SDS011;46415;47.536;19.066;2023-04-19T11:47:50;7.03;;;6.32;;
60582;SDS011;46415;47.536;19.066;2023-04-19T11:50:56;7.00;;;6.32;;
60582;SDS011;46415;47.536;19.066;2023-04-19T11:54:00;7.03;;;6.32;;
60582;SDS011;46415;47.536;19.066;2023-04-19T11:57:03;7.62;;;6.05;;
60582;SDS011;46415;47.536;19.066;2023-04-19T12:00:10;6.95;;;6.25;;
60582;SDS011;46415;47.536;19.066;2023-04-19T12:03:13;6.68;;;5.90;;
60582;SDS011;46415;47.536;19.066;2023-04-19T12:06:24;7.22;;;5.62;;
60582;SDS011;46415;47.536;19.066;2023-04-19T12:09:34;7.07;;;6.37;;
60582;SDS011;46415;47.536;19.066;2023-04-19T12:12:38;10.38;;;7.45;;
60582;SDS011;46415;47.536;19.066;2023-04-19T12:15:41;9.38;;;8.05;;
60582;SDS011;46415;47.536;19.066;2023-04-19T12:18:46;8.52;;;7.28;;
60582;SDS011;46415;47.536;19.066;2023-04-19T12:21:50;9.55;;;7.28;;
60582;SDS011;46415;47.536;19.066;2023-04-19T12:24:53;9.65;;;8.18;;
60582;SDS011;46415;47.536;19.066;2023-04-19T12:27:57;9.45;;;7.97;;
60582;SDS011;46415;47.536;19.066;2023-04-19T12:31:00;9.32;;;8.40;;
60582;SDS011;46415;47.536;19.066;2023-04-19T12:34:03;8.73;;;7.85;;
60582;SDS011;46415;47.536;19.066;2023-04-19T12:37:06;9.20;;;7.47;;
60582;SDS011;46415;47.536;19.066;2023-04-19T12:40:09;10.43;;;7.80;;
60582;SDS011;46415;47.536;19.066;2023-04-19T12:43:13;10.57;;;8.15;;
60582;SDS011;46415;47.536;19.066;2023-04-19T12:46:15;10.13;;;8.40;;
60582;SDS011;46415;47.536;19.066;2023-04-19T12:49:18;9.07;;;7.93;;
60582;SDS011;46415;47.536;19.066;2023-04-19T12:52:21;10.20;;;8.40;;
60582;SDS011;46415;47.536;19.066;2023-04-19T12:55:24;10.18;;;7.80;;
60582;SDS011;46415;47.536;19.066;2023-04-19T12:58:27;9.57;;;7.40;;
60582;SDS011;46415;47.536;19.066;2023-04-19T13:01:31;8.68;;;7.35;;
60582;SDS011;46415;47.536;19.066;2023-04-19T13:04:34;10.02;;;7.53;;
60582;SDS011;46415;47.536;19.066;2023-04-19T13:07:38;10.43;;;7.60;;
60582;SDS011;46415;47.536;19.066;2023-04-19T13:10:41;9.45;;;7.40;;
60582;SDS011;46415;47.536;19.066;2023-04-19T13:13:44;8.32;;;7.12;;
60582;SDS011;46415;47.536;19.066;2023-04-19T13:16:47;7.78;;;6.75;;
60582;SDS011;46415;47.536;19.066;2023-04-19T13:19:50;8.00;;;6.90;;
60582;SDS011;46415;47.536;19.066;2023-04-19T13:22:53;7.40;;;6.47;;
60582;SDS011;46415;47.536;19.066;2023-04-19T13:25:55;8.32;;;6.68;;
60582;SDS011;46415;47.536;19.066;2023-04-19T13:28:58;7.12;;;5.90;;
60582;SDS011;46415;47.536;19.066;2023-04-19T13:32:02;6.82;;;6.20;;
60582;SDS011;46415;47.536;19.066;2023-04-19T13:35:08;6.87;;;6.28;;
60582;SDS011;46415;47.536;19.066;2023-04-19T13:38:12;6.25;;;5.65;;
60582;SDS011;46415;47.536;19.066;2023-04-19T13:41:15;6.65;;;5.97;;
60582;SDS011;46415;47.536;19.066;2023-04-19T13:44:17;8.57;;;7.60;;
60582;SDS011;46415;47.536;19.066;2023-04-19T13:47:20;11.60;;;9.10;;
60582;SDS011;46415;47.536;19.066;2023-04-19T13:50:23;12.32;;;9.90;;
60582;SDS011;46415;47.536;19.066;2023-04-19T13:53:26;10.70;;;9.20;;
60582;SDS011;46415;47.536;19.066;2023-04-19T13:56:30;10.88;;;8.40;;
60582;SDS011;46415;47.536;19.066;2023-04-19T13:59:33;10.32;;;9.07;;
60582;SDS011;46415;47.536;19.066;2023-04-19T14:02:36;11.12;;;9.75;;
60582;SDS011;46415;47.536;19.066;2023-04-19T14:05:39;11.68;;;9.32;;
60582;SDS011;46415;47.536;19.066;2023-04-19T14:08:42;10.75;;;9.65;;
60582;SDS011;46415;47.536;19.066;2023-04-19T14:11:46;11.75;;;9.75;;
60582;SDS011;46415;47.536;19.066;2023-04-19T14:14:50;11.70;;;10.02;;
60582;SDS011;46415;47.536;19.066;2023-04-19T14:17:52;11.43;;;8.65;;
60582;SDS011;46415;47.536;19.066;2023-04-19T14:20:55;13.40;;;9.02;;
60582;SDS011;46415;47.536;19.066;2023-04-19T14:23:58;9.32;;;8.32;;
60582;SDS011;46415;47.536;19.066;2023-04-19T14:27:01;10.35;;;7.95;;
60582;SDS011;46415;47.536;19.066;2023-04-19T14:30:13;9.27;;;8.27;;
60582;SDS011;46415;47.536;19.066;2023-04-19T14:33:15;11.77;;;8.57;;
60582;SDS011;46415;47.536;19.066;2023-04-19T14:36:18;8.55;;;7.57;;
60582;SDS011;46415;47.536;19.066;2023-04-19T14:39:21;8.68;;;7.62;;
60582;SDS011;46415;47.536;19.066;2023-04-19T14:42:24;9.55;;;7.97;;
60582;SDS011;46415;47.536;19.066;2023-04-19T14:45:27;8.85;;;7.55;;
60582;SDS011;46415;47.536;19.066;2023-04-19T14:48:30;8.80;;;7.70;;
60582;SDS011;46415;47.536;19.066;2023-04-19T14:51:33;8.63;;;7.05;;
60582;SDS011;46415;47.536;19.066;2023-04-19T14:54:36;8.48;;;6.68;;
60582;SDS011;46415;47.536;19.066;2023-04-19T14:57:39;9.05;;;6.82;;
60582;SDS011;46415;47.536;19.066;2023-04-19T15:00:42;8.20;;;6.62;;
60582;SDS011;46415;47.536;19.066;2023-04-19T15:03:46;8.30;;;6.32;;
60582;SDS011;46415;47.536;19.066;2023-04-19T15:06:50;6.60;;;5.78;;
60582;SDS011;46415;47.536;19.066;2023-04-19T15:09:53;7.72;;;5.95;;
60582;SDS011;46415;47.536;19.066;2023-04-19T15:12:55;6.20;;;5.43;;
60582;SDS011;46415;47.536;19.066;2023-04-19T15:15:59;7.18;;;5.60;;
60582;SDS011;46415;47.536;19.066;2023-04-19T15:19:04;6.60;;;5.37;;
60582;SDS011;46415;47.536;19.066;2023-04-19T15:22:08;6.30;;;5.70;;
60582;SDS011;46415;47.536;19.066;2023-04-19T15:25:12;5.65;;;5.12;;
60582;SDS011;46415;47.536;19.066;2023-04-19T15:28:15;6.85;;;5.45;;
60582;SDS011;46415;47.536;19.066;2023-04-19T15:31:18;5.15;;;4.60;;
60582;SDS011;46415;47.536;19.066;2023-04-19T15:34:21;5.50;;;4.90;;
60582;SDS011;46415;47.536;19.066;2023-04-19T15:37:24;6.12;;;5.18;;
60582;SDS011;46415;47.536;19.066;2023-04-19T15:40:26;5.32;;;4.82;;
60582;SDS011;46415;47.536;19.066;2023-04-19T15:43:30;4.37;;;3.97;;
60582;SDS011;46415;47.536;19.066;2023-04-19T15:46:34;4.32;;;3.80;;
60582;SDS011;46415;47.536;19.066;2023-04-19T15:49:37;4.25;;;3.85;;
60582;SDS011;46415;47.536;19.066;2023-04-19T15:52:42;5.90;;;3.40;;
60582;SDS011;46415;47.536;19.066;2023-04-19T15:55:45;3.75;;;3.45;;
60582;SDS011;46415;47.536;19.066;2023-04-19T15:58:49;3.58;;;3.05;;
60582;SDS011;46415;47.536;19.066;2023-04-19T16:01:52;3.40;;;3.10;;
60582;SDS011;46415;47.536;19.066;2023-04-19T16:04:55;4.70;;;3.25;;
60582;SDS011;46415;47.536;19.066;2023-04-19T16:08:04;2.45;;;2.25;;
60582;SDS011;46415;47.536;19.066;2023-04-19T16:11:09;5.07;;;3.20;;
60582;SDS011;46415;47.536;19.066;2023-04-19T16:14:11;3.72;;;3.35;;
60582;SDS011;46415;47.536;19.066;2023-04-19T16:17:14;3.83;;;3.28;;
60582;SDS011;46415;47.536;19.066;2023-04-19T16:20:17;4.47;;;3.70;;
60582;SDS011;46415;47.536;19.066;2023-04-19T16:23:22;4.00;;;3.47;;
60582;SDS011;46415;47.536;19.066;2023-04-19T16:26:25;4.05;;;3.50;;
60582;SDS011;46415;47.536;19.066;2023-04-19T16:29:29;6.25;;;3.40;;
60582;SDS011;46415;47.536;19.066;2023-04-19T16:32:32;4.47;;;3.95;;
60582;SDS011;46415;47.536;19.066;2023-04-19T16:35:35;5.70;;;3.47;;
60582;SDS011;46415;47.536;19.066;2023-04-19T16:38:38;4.00;;;3.70;;
60582;SDS011;46415;47.536;19.066;2023-04-19T16:41:41;4.15;;;3.75;;
60582;SDS011;46415;47.536;19.066;2023-04-19T16:44:45;4.18;;;3.42;;
60582;SDS011;46415;47.536;19.066;2023-04-19T16:47:48;3.62;;;3.33;;
60582;SDS011;46415;47.536;19.066;2023-04-19T16:50:50;5.72;;;4.10;;
60582;SDS011;46415;47.536;19.066;2023-04-19T16:53:54;4.47;;;3.90;;
60582;SDS011;46415;47.536;19.066;2023-04-19T16:56:57;4.75;;;4.05;;
60582;SDS011;46415;47.536;19.066;2023-04-19T17:00:00;4.97;;;4.10;;
60582;SDS011;46415;47.536;19.066;2023-04-19T17:03:02;4.68;;;4.22;;
60582;SDS011;46415;47.536;19.066;2023-04-19T17:06:06;5.12;;;4.05;;
60582;SDS011;46415;47.536;19.066;2023-04-19T17:09:09;5.32;;;4.25;;
60582;SDS011;46415;47.536;19.066;2023-04-19T17:12:12;5.10;;;4.60;;
60582;SDS011;46415;47.536;19.066;2023-04-19T17:15:14;5.40;;;4.72;;
60582;SDS011;46415;47.536;19.066;2023-04-19T17:18:17;5.07;;;4.57;;
60582;SDS011;46415;47.536;19.066;2023-04-19T17:21:20;5.43;;;4.93;;
60582;SDS011;46415;47.536;19.066;2023-04-19T17:24:23;6.12;;;5.22;;
60582;SDS011;46415;47.536;19.066;2023-04-19T17:27:26;6.15;;;5.30;;
60582;SDS011;46415;47.536;19.066;2023-04-19T17:30:29;6.00;;;5.40;;
60582;SDS011;46415;47.536;19.066;2023-04-19T17:33:32;6.50;;;5.12;;
60582;SDS011;46415;47.536;19.066;2023-04-19T17:36:35;7.35;;;6.22;;
60582;SDS011;46415;47.536;19.066;2023-04-19T17:39:38;9.98;;;6.03;;
60582;SDS011;46415;47.536;19.066;2023-04-19T17:42:41;6.95;;;6.10;;
60582;SDS011;46415;47.536;19.066;2023-04-19T17:45:44;7.82;;;6.78;;
60582;SDS011;46415;47.536;19.066;2023-04-19T17:48:47;7.85;;;7.05;;
60582;SDS011;46415;47.536;19.066;2023-04-19T17:51:49;8.65;;;7.47;;
60582;SDS011;46415;47.536;19.066;2023-04-19T17:54:52;8.95;;;7.30;;
60582;SDS011;46415;47.536;19.066;2023-04-19T17:57:55;7.55;;;6.45;;
60582;SDS011;46415;47.536;19.066;2023-04-19T18:00:58;9.45;;;7.20;;
60582;SDS011;46415;47.536;19.066;2023-04-19T18:04:02;8.45;;;7.20;;
60582;SDS011;46415;47.536;19.066;2023-04-19T18:07:05;8.23;;;7.10;;
60582;SDS011;46415;47.536;19.066;2023-04-19T18:10:08;9.77;;;7.25;;
60582;SDS011;46415;47.536;19.066;2023-04-19T18:13:11;6.55;;;5.65;;
60582;SDS011;46415;47.536;19.066;2023-04-19T18:16:14;9.65;;;7.10;;
60582;SDS011;46415;47.536;19.066;2023-04-19T18:19:18;7.78;;;6.50;;
60582;SDS011;46415;47.536;19.066;2023-04-19T18:22:22;8.00;;;6.68;;